Time;durP1;ratioP1;P1;durP2;ratioP2;P2;SDS_P1;SDS_P2;PMS_P1;PMS_P2;Temp;Humidity;BMP_temperature;BMP_pressure;BME280_temperature;BME280_humidity;BME280_pressure;Samples;Min_cycle;Max_cycle;Signal;HPM_P1;HPM_P2
2022/03/10 00:20:35;;;;;;;5.12;4.60;;;;;;;;;;4905533;28;21450;-62
2022/03/10 00:23:01;;;;;;;4.95;4.40;;;;;;;;;;4229582;33;20112;-61
2022/03/10 00:25:27;;;;;;;5.78;4.65;;;;;;;;;;4222788;33;20201;-64
2022/03/10 00:27:53;;;;;;;4.62;4.22;;;;;;;;;;4214009;33;20143;-64
2022/03/10 00:30:20;;;;;;;6.30;4.25;;;;;;;;;;4233716;33;20112;-66
2022/03/10 00:32:48;;;;;;;6.18;4.62;;;;;;;;;;4220026;33;20120;-61
2022/03/10 00:35:18;;;;;;;5.20;4.15;;;;;;;;;;4233560;33;20117;-61
2022/03/10 00:37:45;;;;;;;5.53;4.90;;;;;;;;;;4233314;33;20212;-66
2022/03/10 00:40:12;;;;;;;5.47;4.82;;;;;;;;;;4216449;34;20445;-67
2022/03/10 00:42:39;;;;;;;5.37;4.87;;;;;;;;;;4219203;34;20135;-66
2022/03/10 00:45:06;;;;;;;5.68;4.85;;;;;;;;;;4219441;34;20101;-66
2022/03/10 00:47:33;;;;;;;5.65;4.80;;;;;;;;;;4219371;34;20125;-66
2022/03/10 00:49:59;;;;;;;5.75;4.90;;;;;;;;;;4219434;34;20543;-66
2022/03/10 00:52:25;;;;;;;5.53;4.43;;;;;;;;;;4219302;34;20120;-66
2022/03/10 00:54:51;;;;;;;6.15;4.97;;;;;;;;;;4219451;34;20457;-66
2022/03/10 00:57:17;;;;;;;8.10;5.30;;;;;;;;;;4223404;33;20124;-66
2022/03/10 00:59:43;;;;;;;5.60;4.70;;;;;;;;;;4220294;33;20112;-64
2022/03/10 01:02:09;;;;;;;6.72;5.95;;;;;;;;;;4220739;33;20104;-66
2022/03/10 01:04:35;;;;;;;6.62;5.15;;;;;;;;;;4237559;33;20164;-64
2022/03/10 01:07:01;;;;;;;6.60;5.00;;;;;;;;;;4239784;33;20110;-64
2022/03/10 01:09:27;;;;;;;5.82;4.60;;;;;;;;;;4233683;33;20219;-66
2022/03/10 01:11:53;;;;;;;5.75;4.85;;;;;;;;;;4237357;33;20103;-66
2022/03/10 01:14:19;;;;;;;6.12;4.47;;;;;;;;;;4234274;33;20517;-67
2022/03/10 01:16:45;;;;;;;5.05;4.22;;;;;;;;;;4233862;33;20097;-66
2022/03/10 01:19:11;;;;;;;4.65;4.22;;;;;;;;;;4233318;33;20113;-64
2022/03/10 01:21:37;;;;;;;7.75;4.80;;;;;;;;;;4233335;33;20116;-64
2022/03/10 01:24:03;;;;;;;5.18;4.60;;;;;;;;;;4219707;33;20537;-64
2022/03/10 01:26:29;;;;;;;5.07;4.37;;;;;;;;;;4233340;33;20545;-65
2022/03/10 01:28:55;;;;;;;5.60;4.87;;;;;;;;;;4220301;33;20120;-64
2022/03/10 01:31:21;;;;;;;5.43;4.65;;;;;;;;;;4233137;33;20207;-64
2022/03/10 01:33:47;;;;;;;5.90;4.45;;;;;;;;;;4232935;33;20219;-65
2022/03/10 01:36:13;;;;;;;5.15;4.55;;;;;;;;;;4232971;33;20111;-65
2022/03/10 01:38:39;;;;;;;5.62;4.65;;;;;;;;;;4233204;33;20523;-64
2022/03/10 01:41:06;;;;;;;4.93;4.05;;;;;;;;;;4233088;33;20136;-64
2022/03/10 01:43:32;;;;;;;6.68;4.20;;;;;;;;;;4232582;33;20116;-64
2022/03/10 01:46:02;;;;;;;4.95;4.43;;;;;;;;;;4232862;33;20221;-64
2022/03/10 01:48:28;;;;;;;5.10;4.07;;;;;;;;;;4232744;33;20195;-64
2022/03/10 01:50:54;;;;;;;5.15;4.53;;;;;;;;;;4233024;33;20135;-64
2022/03/10 01:53:20;;;;;;;5.50;4.62;;;;;;;;;;4219972;33;20525;-63
2022/03/10 01:55:46;;;;;;;4.93;4.43;;;;;;;;;;4233197;33;20184;-64
2022/03/10 01:58:13;;;;;;;5.20;4.07;;;;;;;;;;4232639;33;20190;-63
2022/03/10 02:00:39;;;;;;;5.05;4.10;;;;;;;;;;4219971;33;20485;-64
2022/03/10 02:03:05;;;;;;;5.62;4.05;;;;;;;;;;4232705;33;20153;-64
2022/03/10 02:05:31;;;;;;;5.47;4.32;;;;;;;;;;4232764;33;20093;-64
2022/03/10 02:10:42;;;;;;;5.62;4.82;;;;;;;;;;4232725;33;20105;-64
2022/03/10 02:13:08;;;;;;;6.85;5.22;;;;;;;;;;4232894;33;21050;-64
2022/03/10 02:18:21;;;;;;;6.20;4.28;;;;;;;;;;4232584;33;20120;-64
2022/03/10 02:20:48;;;;;;;5.12;4.43;;;;;;;;;;4232539;33;20192;-64
2022/03/10 02:23:14;;;;;;;5.43;4.22;;;;;;;;;;4232558;33;20540;-64
2022/03/10 02:25:41;;;;;;;6.60;4.85;;;;;;;;;;4232692;33;20113;-61
2022/03/10 02:28:07;;;;;;;5.70;4.55;;;;;;;;;;4232496;33;20123;-62
2022/03/10 02:30:34;;;;;;;4.70;4.30;;;;;;;;;;4232559;33;20140;-64
2022/03/10 02:33:00;;;;;;;5.65;4.22;;;;;;;;;;4219357;33;20220;-65
2022/03/10 02:35:27;;;;;;;5.07;4.20;;;;;;;;;;4231017;33;20135;-65
2022/03/10 02:37:53;;;;;;;7.28;4.95;;;;;;;;;;4219392;33;20188;-64
2022/03/10 02:40:19;;;;;;;6.03;4.62;;;;;;;;;;4232373;33;20107;-62
2022/03/10 02:42:45;;;;;;;6.25;4.80;;;;;;;;;;4232391;33;20097;-63
2022/03/10 02:45:11;;;;;;;5.22;4.45;;;;;;;;;;4232225;33;20101;-64
2022/03/10 02:47:37;;;;;;;4.97;4.25;;;;;;;;;;4232321;33;20150;-63
2022/03/10 02:50:06;;;;;;;5.60;4.53;;;;;;;;;;4219224;33;20532;-62
2022/03/10 02:52:37;;;;;;;6.55;4.70;;;;;;;;;;4232315;33;20120;-62
2022/03/10 02:55:04;;;;;;;5.85;4.68;;;;;;;;;;4218156;33;20533;-63
2022/03/10 02:57:31;;;;;;;6.97;4.90;;;;;;;;;;4232502;33;20108;-62
2022/03/10 02:59:59;;;;;;;7.07;4.78;;;;;;;;;;4232364;33;20108;-65
2022/03/10 03:02:25;;;;;;;4.95;4.40;;;;;;;;;;4219179;33;20517;-64
2022/03/10 03:04:50;;;;;;;5.45;4.53;;;;;;;;;;4232053;33;20104;-62
2022/03/10 03:07:16;;;;;;;5.97;5.20;;;;;;;;;;4232437;33;20456;-61
2022/03/10 03:09:42;;;;;;;5.50;4.97;;;;;;;;;;4232029;33;20105;-61
2022/03/10 03:12:08;;;;;;;5.65;5.12;;;;;;;;;;4232061;33;20109;-64
2022/03/10 03:14:34;;;;;;;5.62;5.10;;;;;;;;;;4231864;33;20113;-62
2022/03/10 03:17:00;;;;;;;5.05;4.55;;;;;;;;;;4232421;33;20120;-62
2022/03/10 03:19:26;;;;;;;5.47;4.90;;;;;;;;;;4231775;33;20219;-62
2022/03/10 03:21:52;;;;;;;5.35;4.85;;;;;;;;;;4231935;33;20145;-62
2022/03/10 03:24:19;;;;;;;5.80;5.18;;;;;;;;;;4231969;33;20196;-62
2022/03/10 03:26:45;;;;;;;5.53;4.87;;;;;;;;;;4232006;33;20128;-62
2022/03/10 03:29:11;;;;;;;6.50;4.97;;;;;;;;;;4231837;33;20127;-62
2022/03/10 03:31:37;;;;;;;5.35;4.85;;;;;;;;;;4231523;33;20129;-62
2022/03/10 03:34:10;;;;;;;6.43;4.65;;;;;;;;;;4231083;33;20113;-63
2022/03/10 03:36:38;;;;;;;6.50;5.25;;;;;;;;;;4218601;33;20533;-64
2022/03/10 03:39:04;;;;;;;5.60;4.93;;;;;;;;;;4231088;33;20098;-64
2022/03/10 03:41:30;;;;;;;5.95;5.07;;;;;;;;;;4231066;33;20473;-64
2022/03/10 03:43:56;;;;;;;6.12;5.20;;;;;;;;;;4231122;33;20211;-64
2022/03/10 03:46:22;;;;;;;6.45;4.72;;;;;;;;;;4229700;33;20137;-62
2022/03/10 03:48:48;;;;;;;6.70;5.07;;;;;;;;;;4224862;33;20209;-63
2022/03/10 03:51:14;;;;;;;5.12;4.62;;;;;;;;;;4223787;33;20113;-63
2022/03/10 03:53:40;;;;;;;5.80;5.18;;;;;;;;;;4224167;33;20204;-64
2022/03/10 03:56:06;;;;;;;6.90;4.80;;;;;;;;;;4222887;33;20105;-64
2022/03/10 03:58:32;;;;;;;5.45;4.57;;;;;;;;;;4223723;33;20203;-64
2022/03/10 04:00:58;;;;;;;5.72;4.80;;;;;;;;;;4223792;33;20124;-63
2022/03/10 04:03:24;;;;;;;5.45;4.78;;;;;;;;;;4222477;33;20198;-64
2022/03/10 04:05:50;;;;;;;5.70;4.62;;;;;;;;;;4228694;33;20448;-63
2022/03/10 04:08:16;;;;;;;6.20;5.32;;;;;;;;;;4233660;33;20085;-62
2022/03/10 04:10:42;;;;;;;5.72;4.85;;;;;;;;;;4228503;33;20527;-61
2022/03/10 04:13:09;;;;;;;5.70;4.90;;;;;;;;;;4224729;33;20129;-59
2022/03/10 04:15:35;;;;;;;6.32;4.80;;;;;;;;;;4221015;33;20143;-60
2022/03/10 04:18:02;;;;;;;7.28;5.47;;;;;;;;;;4209450;33;20131;-59
2022/03/10 04:20:28;;;;;;;7.18;5.05;;;;;;;;;;4208866;33;20536;-59
2022/03/10 04:22:54;;;;;;;6.47;4.97;;;;;;;;;;4232017;33;20116;-60
2022/03/10 04:25:20;;;;;;;6.00;5.25;;;;;;;;;;4233302;33;20111;-59
2022/03/10 04:27:46;;;;;;;5.50;4.75;;;;;;;;;;4233454;33;20085;-59
2022/03/10 04:30:13;;;;;;;5.78;4.80;;;;;;;;;;4231967;33;20208;-58
2022/03/10 04:32:43;;;;;;;5.97;4.82;;;;;;;;;;4233482;33;20537;-59
2022/03/10 04:35:12;;;;;;;5.37;4.55;;;;;;;;;;4220617;33;20105;-58
2022/03/10 04:37:38;;;;;;;6.55;5.20;;;;;;;;;;4233402;33;20101;-59
2022/03/10 04:40:06;;;;;;;6.40;5.07;;;;;;;;;;4233634;33;20129;-60
2022/03/10 04:42:33;;;;;;;5.25;4.75;;;;;;;;;;4233390;33;20528;-59
2022/03/10 04:44:59;;;;;;;5.57;4.95;;;;;;;;;;4233266;33;20159;-59
2022/03/10 04:47:25;;;;;;;6.62;4.97;;;;;;;;;;4233348;33;20501;-59
2022/03/10 04:49:51;;;;;;;6.72;5.03;;;;;;;;;;4233338;33;20586;-61
2022/03/10 04:52:17;;;;;;;5.75;4.95;;;;;;;;;;4233547;33;20129;-60
2022/03/10 04:54:43;;;;;;;5.00;4.50;;;;;;;;;;4233272;33;20119;-61
2022/03/10 04:57:09;;;;;;;5.40;4.90;;;;;;;;;;4233582;33;20448;-60
2022/03/10 04:59:35;;;;;;;6.50;5.30;;;;;;;;;;4233118;33;20445;-64
2022/03/10 05:02:02;;;;;;;6.60;5.45;;;;;;;;;;4233200;33;20121;-64
2022/03/10 05:04:28;;;;;;;6.20;5.12;;;;;;;;;;4231551;33;20116;-63
2022/03/10 05:06:54;;;;;;;5.70;5.10;;;;;;;;;;4233551;33;20135;-63
2022/03/10 05:09:20;;;;;;;5.90;4.40;;;;;;;;;;4220267;33;20104;-62
2022/03/10 05:11:46;;;;;;;5.00;4.47;;;;;;;;;;4233241;33;20184;-63
2022/03/10 05:14:12;;;;;;;6.35;4.68;;;;;;;;;;4233206;33;20111;-63
2022/03/10 05:16:38;;;;;;;5.37;4.87;;;;;;;;;;4233605;33;20632;-63
2022/03/10 05:19:04;;;;;;;5.18;4.53;;;;;;;;;;4232768;33;20138;-63
2022/03/10 05:21:30;;;;;;;6.30;4.62;;;;;;;;;;4233000;33;20118;-63
2022/03/10 05:23:56;;;;;;;5.18;4.45;;;;;;;;;;4231570;33;20105;-62
2022/03/10 05:26:22;;;;;;;6.12;5.10;;;;;;;;;;4233200;33;20440;-63
2022/03/10 05:28:48;;;;;;;5.43;4.65;;;;;;;;;;4233245;33;20116;-63
2022/03/10 05:31:14;;;;;;;5.55;4.65;;;;;;;;;;4232964;33;20117;-62
2022/03/10 05:33:40;;;;;;;5.35;4.50;;;;;;;;;;4233143;33;20110;-61
2022/03/10 05:36:06;;;;;;;6.30;5.15;;;;;;;;;;4220043;33;20112;-63
2022/03/10 05:38:32;;;;;;;5.43;4.90;;;;;;;;;;4231674;33;20421;-63
2022/03/10 05:41:00;;;;;;;6.00;4.72;;;;;;;;;;4219762;33;20514;-62
2022/03/10 05:43:25;;;;;;;6.45;5.07;;;;;;;;;;4219970;33;20132;-62
2022/03/10 05:45:51;;;;;;;5.80;5.20;;;;;;;;;;4233055;33;20457;-62
2022/03/10 05:48:17;;;;;;;6.28;5.43;;;;;;;;;;4219793;33;20149;-62
2022/03/10 05:50:43;;;;;;;6.68;5.15;;;;;;;;;;4231491;33;20473;-62
2022/03/10 05:53:10;;;;;;;7.68;5.93;;;;;;;;;;4232790;33;20114;-62
2022/03/10 05:55:36;;;;;;;6.05;5.32;;;;;;;;;;4232978;33;20208;-63
2022/03/10 05:58:02;;;;;;;6.82;5.03;;;;;;;;;;4233075;33;20132;-61
2022/03/10 06:00:28;;;;;;;6.15;4.93;;;;;;;;;;4232654;33;20109;-63
2022/03/10 06:02:54;;;;;;;6.68;5.57;;;;;;;;;;4232763;33;20120;-63
2022/03/10 06:05:20;;;;;;;5.70;5.10;;;;;;;;;;4232629;33;20224;-62
2022/03/10 06:07:46;;;;;;;7.03;5.50;;;;;;;;;;4232922;33;20494;-62
2022/03/10 06:10:12;;;;;;;5.82;4.65;;;;;;;;;;4232599;33;20103;-61
2022/03/10 06:12:38;;;;;;;6.70;4.68;;;;;;;;;;4232693;33;20105;-62
2022/03/10 06:15:06;;;;;;;5.97;5.07;;;;;;;;;;4232537;33;20524;-62
2022/03/10 06:17:33;;;;;;;5.28;4.78;;;;;;;;;;4232659;33;20457;-61
2022/03/10 06:19:59;;;;;;;6.30;4.78;;;;;;;;;;4232525;33;20601;-62
2022/03/10 06:22:29;;;;;;;6.40;5.00;;;;;;;;;;4232465;33;20089;-62
2022/03/10 06:24:55;;;;;;;6.25;5.55;;;;;;;;;;4219511;33;20189;-62
2022/03/10 06:27:22;;;;;;;6.28;4.87;;;;;;;;;;4232773;33;20099;-61
2022/03/10 06:29:48;;;;;;;5.87;5.25;;;;;;;;;;4232365;33;20101;-61
2022/03/10 06:32:17;;;;;;;9.25;6.15;;;;;;;;;;4232415;33;20117;-62
2022/03/10 06:34:43;;;;;;;7.18;5.47;;;;;;;;;;4232369;33;20140;-62
2022/03/10 06:37:09;;;;;;;6.40;4.80;;;;;;;;;;4232555;33;20446;-62
2022/03/10 06:39:35;;;;;;;7.30;4.75;;;;;;;;;;4232277;33;20211;-63
2022/03/10 06:42:05;;;;;;;5.57;5.00;;;;;;;;;;4219402;33;20136;-62
2022/03/10 06:44:32;;;;;;;6.37;5.00;;;;;;;;;;4232601;33;20108;-62
2022/03/10 06:46:58;;;;;;;5.55;4.65;;;;;;;;;;4232596;33;20132;-61
2022/03/10 06:49:24;;;;;;;6.15;5.00;;;;;;;;;;4219089;33;20213;-62
2022/03/10 06:51:50;;;;;;;5.65;4.62;;;;;;;;;;4232294;33;20133;-62
2022/03/10 06:54:17;;;;;;;6.32;5.68;;;;;;;;;;4232234;33;20117;-62
2022/03/10 06:56:44;;;;;;;5.82;4.62;;;;;;;;;;4232439;33;20541;-61
2022/03/10 06:59:10;;;;;;;7.95;5.12;;;;;;;;;;4232469;33;20128;-64
2022/03/10 07:01:36;;;;;;;6.60;4.75;;;;;;;;;;4232029;33;20127;-64
2022/03/10 07:04:02;;;;;;;8.40;4.80;;;;;;;;;;4232133;33;20109;-64
2022/03/10 07:06:28;;;;;;;7.97;4.95;;;;;;;;;;4232136;33;20092;-64
2022/03/10 07:08:54;;;;;;;7.70;4.50;;;;;;;;;;4219176;33;20695;-64
2022/03/10 07:11:21;;;;;;;6.10;4.90;;;;;;;;;;4232107;33;20137;-65
2022/03/10 07:13:47;;;;;;;6.45;4.97;;;;;;;;;;4232004;33;20092;-64
2022/03/10 07:16:13;;;;;;;5.30;4.80;;;;;;;;;;4231893;33;20136;-64
2022/03/10 07:18:39;;;;;;;6.75;5.55;;;;;;;;;;4231908;33;20120;-64
2022/03/10 07:21:05;;;;;;;6.12;4.80;;;;;;;;;;4231915;33;20108;-64
2022/03/10 07:23:32;;;;;;;8.10;5.30;;;;;;;;;;4231789;33;20438;-63
2022/03/10 07:25:58;;;;;;;6.05;5.18;;;;;;;;;;4232074;33;20124;-63
2022/03/10 07:28:25;;;;;;;8.23;5.07;;;;;;;;;;4231673;33;20112;-64
2022/03/10 07:30:52;;;;;;;4.97;4.47;;;;;;;;;;4231863;33;20121;-63
2022/03/10 07:33:18;;;;;;;6.53;4.93;;;;;;;;;;4218896;33;20127;-62
2022/03/10 07:35:44;;;;;;;5.22;4.50;;;;;;;;;;4231761;33;20221;-63
2022/03/10 07:38:11;;;;;;;6.47;4.80;;;;;;;;;;4232016;33;20541;-63
2022/03/10 07:40:37;;;;;;;6.25;4.90;;;;;;;;;;4231508;33;20121;-63
2022/03/10 07:43:05;;;;;;;6.57;5.15;;;;;;;;;;4233639;33;20132;-63
2022/03/10 07:45:32;;;;;;;6.00;4.68;;;;;;;;;;4233839;33;20109;-63
2022/03/10 07:47:58;;;;;;;5.53;4.60;;;;;;;;;;4220830;33;20101;-62
2022/03/10 07:50:24;;;;;;;5.37;4.55;;;;;;;;;;4233769;33;20105;-63
2022/03/10 07:52:50;;;;;;;7.30;5.12;;;;;;;;;;4209187;33;20109;-63
2022/03/10 07:55:16;;;;;;;6.55;5.10;;;;;;;;;;4233675;33;20185;-63
2022/03/10 07:57:43;;;;;;;7.15;5.97;;;;;;;;;;4234081;33;20442;-63
2022/03/10 08:00:09;;;;;;;6.22;5.28;;;;;;;;;;4233676;33;20124;-63
2022/03/10 08:02:36;;;;;;;7.12;5.90;;;;;;;;;;4220668;33;20101;-63
2022/03/10 08:05:03;;;;;;;9.00;5.40;;;;;;;;;;4233440;33;20532;-64
2022/03/10 08:07:32;;;;;;;5.70;5.10;;;;;;;;;;4220585;33;20196;-63
2022/03/10 08:10:00;;;;;;;6.18;5.07;;;;;;;;;;4233580;33;20104;-63
2022/03/10 08:12:29;;;;;;;5.95;4.65;;;;;;;;;;4233574;33;20113;-62
2022/03/10 08:14:56;;;;;;;7.18;4.78;;;;;;;;;;4233929;33;20136;-61
2022/03/10 08:17:22;;;;;;;5.47;4.85;;;;;;;;;;4233545;33;20097;-63
2022/03/10 08:19:48;;;;;;;7.72;4.97;;;;;;;;;;4233498;33;20129;-62
2022/03/10 08:22:18;;;;;;;6.12;4.90;;;;;;;;;;4233491;33;20184;-62
2022/03/10 08:24:47;;;;;;;6.32;5.03;;;;;;;;;;4233296;33;20136;-62
2022/03/10 08:27:15;;;;;;;7.22;5.18;;;;;;;;;;4233420;33;20107;-62
2022/03/10 08:29:42;;;;;;;7.20;4.85;;;;;;;;;;4220019;33;20635;-63
2022/03/10 08:32:08;;;;;;;6.85;5.37;;;;;;;;;;4233423;33;20188;-63
2022/03/10 08:34:35;;;;;;;5.85;5.25;;;;;;;;;;4233502;33;20105;-62
2022/03/10 08:37:02;;;;;;;6.37;5.25;;;;;;;;;;4233682;33;20445;-62
2022/03/10 08:39:28;;;;;;;7.70;5.05;;;;;;;;;;4233290;33;20133;-62
2022/03/10 08:41:54;;;;;;;5.85;5.25;;;;;;;;;;4232113;33;20521;-63
2022/03/10 08:44:20;;;;;;;6.72;4.70;;;;;;;;;;4233481;33;20127;-61
2022/03/10 08:46:47;;;;;;;6.05;5.22;;;;;;;;;;4233463;33;20658;-63
2022/03/10 08:49:14;;;;;;;5.45;4.72;;;;;;;;;;4233310;33;20123;-61
2022/03/10 08:51:41;;;;;;;6.35;4.95;;;;;;;;;;4233280;33;20105;-61
2022/03/10 08:54:07;;;;;;;5.97;4.90;;;;;;;;;;4232585;33;20105;-61
2022/03/10 08:56:34;;;;;;;6.03;5.40;;;;;;;;;;4220496;33;20093;-63
2022/03/10 08:59:00;;;;;;;4.97;4.30;;;;;;;;;;4233239;33;20442;-62
2022/03/10 09:01:26;;;;;;;6.20;4.53;;;;;;;;;;4233320;33;20328;-63
2022/03/10 09:03:52;;;;;;;6.22;4.85;;;;;;;;;;4233345;33;20119;-60
2022/03/10 09:06:19;;;;;;;6.85;4.90;;;;;;;;;;4233214;33;20405;-63
2022/03/10 09:08:46;;;;;;;5.90;4.95;;;;;;;;;;4233189;33;20534;-64
2022/03/10 09:11:12;;;;;;;5.82;4.75;;;;;;;;;;4220257;33;20186;-62
2022/03/10 09:13:41;;;;;;;7.57;5.70;;;;;;;;;;4233159;33;20097;-62
2022/03/10 09:16:07;;;;;;;6.90;5.18;;;;;;;;;;4233222;33;20205;-61
2022/03/10 09:18:34;;;;;;;6.15;4.75;;;;;;;;;;4233070;33;20192;-64
2022/03/10 09:21:00;;;;;;;6.20;4.37;;;;;;;;;;4232911;33;20133;-64
2022/03/10 09:23:26;;;;;;;7.72;5.40;;;;;;;;;;4231547;33;20107;-63
2022/03/10 09:25:51;;;;;;;5.50;4.80;;;;;;;;;;4233140;33;20513;-63
2022/03/10 09:28:18;;;;;;;6.05;5.10;;;;;;;;;;4232913;33;20123;-63
2022/03/10 09:30:44;;;;;;;6.35;4.93;;;;;;;;;;4232875;33;20319;-63
2022/03/10 09:33:10;;;;;;;6.12;4.60;;;;;;;;;;4233216;33;20144;-62
2022/03/10 09:35:36;;;;;;;7.87;5.22;;;;;;;;;;4233093;33;20196;-61
2022/03/10 09:38:02;;;;;;;6.45;5.03;;;;;;;;;;4232991;33;20683;-61
2022/03/10 09:40:28;;;;;;;6.72;5.15;;;;;;;;;;4232882;33;20148;-63
2022/03/10 09:42:55;;;;;;;5.40;4.50;;;;;;;;;;4231497;33;20125;-62
2022/03/10 09:45:23;;;;;;;6.78;5.12;;;;;;;;;;4232739;33;20120;-62
2022/03/10 09:47:49;;;;;;;5.30;4.80;;;;;;;;;;4232847;33;20469;-62
2022/03/10 09:50:17;;;;;;;8.13;5.03;;;;;;;;;;4232813;33;20211;-63
2022/03/10 09:52:44;;;;;;;5.75;4.93;;;;;;;;;;4219755;33;20105;-60
2022/03/10 09:55:12;;;;;;;5.40;4.43;;;;;;;;;;4232716;33;20123;-61
2022/03/10 09:57:42;;;;;;;5.68;4.95;;;;;;;;;;4232766;33;20529;-61
2022/03/10 10:00:10;;;;;;;5.62;4.75;;;;;;;;;;4208065;33;20116;-62
2022/03/10 10:02:40;;;;;;;5.55;4.45;;;;;;;;;;4231802;33;20120;-61
2022/03/10 10:05:18;;;;;;;7.30;5.30;;;;;;;;;;4228126;33;20212;-60
2022/03/10 10:07:59;;;;;;;6.05;5.12;;;;;;;;;;4228475;33;20117;-61
2022/03/10 10:10:30;;;;;;;6.00;4.57;;;;;;;;;;4230259;33;20125;-61
2022/03/10 10:12:56;;;;;;;6.18;4.87;;;;;;;;;;4229993;33;20177;-61
2022/03/10 10:15:22;;;;;;;7.55;5.37;;;;;;;;;;4232494;33;20112;-61
2022/03/10 10:17:57;;;;;;;5.35;4.50;;;;;;;;;;4232575;33;20101;-60
2022/03/10 10:20:23;;;;;;;6.07;5.45;;;;;;;;;;4232430;33;20097;-62
2022/03/10 10:22:50;;;;;;;6.57;4.85;;;;;;;;;;4232356;33;20129;-60
2022/03/10 10:25:21;;;;;;;6.95;4.97;;;;;;;;;;4232015;33;20517;-60
2022/03/10 10:27:47;;;;;;;6.28;5.07;;;;;;;;;;4232418;33;20109;-61
2022/03/10 10:30:14;;;;;;;7.37;5.15;;;;;;;;;;4231196;33;20201;-62
2022/03/10 10:32:42;;;;;;;6.85;4.62;;;;;;;;;;4232437;33;20120;-60
2022/03/10 10:35:09;;;;;;;6.70;5.12;;;;;;;;;;4230969;33;20518;-61
2022/03/10 10:37:38;;;;;;;5.62;4.70;;;;;;;;;;4216456;33;20125;-60
2022/03/10 10:40:06;;;;;;;5.80;5.03;;;;;;;;;;4230456;33;20085;-61
2022/03/10 10:42:34;;;;;;;7.37;4.93;;;;;;;;;;4230039;33;20143;-59
2022/03/10 10:45:00;;;;;;;5.72;4.80;;;;;;;;;;4231404;33;20212;-61
2022/03/10 10:47:29;;;;;;;5.68;5.05;;;;;;;;;;4230307;33;20215;-61
2022/03/10 10:50:01;;;;;;;7.20;5.70;;;;;;;;;;4229077;33;20136;-60
2022/03/10 10:52:39;;;;;;;7.00;5.32;;;;;;;;;;4204567;33;20127;-60
2022/03/10 10:55:07;;;;;;;6.68;5.20;;;;;;;;;;4215948;33;20125;-61
2022/03/10 10:57:35;;;;;;;6.28;5.47;;;;;;;;;;4216116;33;20200;-61
2022/03/10 11:00:14;;;;;;;6.25;5.03;;;;;;;;;;4230658;33;20104;-60
2022/03/10 11:02:44;;;;;;;6.68;5.03;;;;;;;;;;4232446;33;20219;-61
2022/03/10 11:05:14;;;;;;;6.80;5.53;;;;;;;;;;4231949;33;20199;-59
2022/03/10 11:07:41;;;;;;;7.28;5.60;;;;;;;;;;4219608;33;20117;-61
2022/03/10 11:10:08;;;;;;;7.40;5.70;;;;;;;;;;4231948;33;20128;-61
2022/03/10 11:12:37;;;;;;;6.22;4.87;;;;;;;;;;4232098;33;20107;-61
2022/03/10 11:15:04;;;;;;;7.53;5.47;;;;;;;;;;4231992;33;20608;-61
2022/03/10 11:17:30;;;;;;;7.65;5.47;;;;;;;;;;4231215;33;20096;-62
2022/03/10 11:19:56;;;;;;;7.00;5.35;;;;;;;;;;4231894;33;20095;-61
2022/03/10 11:22:28;;;;;;;6.18;5.25;;;;;;;;;;4232040;33;20107;-61
2022/03/10 11:25:12;;;;;;;7.18;5.90;;;;;;;;;;4231904;33;20105;-61
2022/03/10 11:27:43;;;;;;;10.18;5.35;;;;;;;;;;4231860;33;20502;-65
2022/03/10 11:30:09;;;;;;;6.30;4.68;;;;;;;;;;4207210;33;20109;-62
2022/03/10 11:32:35;;;;;;;6.70;5.35;;;;;;;;;;4218894;33;20811;-64
2022/03/10 11:35:02;;;;;;;6.37;5.20;;;;;;;;;;4231838;33;20187;-63
2022/03/10 11:37:43;;;;;;;7.43;5.97;;;;;;;;;;4231816;33;20129;-65
2022/03/10 11:40:17;;;;;;;6.35;5.53;;;;;;;;;;4231775;33;20105;-65
2022/03/10 11:42:43;;;;;;;7.72;5.72;;;;;;;;;;4218770;33;20127;-65
2022/03/10 11:45:15;;;;;;;7.25;6.28;;;;;;;;;;4231610;33;20116;-63
2022/03/10 11:47:42;;;;;;;8.52;6.25;;;;;;;;;;4218593;33;20224;-65
2022/03/10 11:50:23;;;;;;;6.57;5.90;;;;;;;;;;4231637;33;20097;-64
2022/03/10 11:52:57;;;;;;;6.97;5.62;;;;;;;;;;4231948;33;20485;-68
2022/03/10 11:55:24;;;;;;;7.32;5.90;;;;;;;;;;4231606;33;20492;-65
2022/03/10 11:57:53;;;;;;;6.10;5.37;;;;;;;;;;4207031;33;20101;-64
2022/03/10 12:00:39;;;;;;;8.35;6.22;;;;;;;;;;4231626;33;20680;-62
2022/03/10 12:03:05;;;;;;;6.68;5.85;;;;;;;;;;4221756;33;20101;-66
2022/03/10 12:05:58;;;;;;;7.35;6.07;;;;;;;;;;4218439;33;20101;-67
2022/03/10 12:08:30;;;;;;;8.10;6.25;;;;;;;;;;4225408;33;20553;-67
2022/03/10 12:11:00;;;;;;;7.57;6.18;;;;;;;;;;4231820;33;20638;-61
2022/03/10 12:13:33;;;;;;;7.72;6.22;;;;;;;;;;4218803;33;20135;-59
2022/03/10 12:16:00;;;;;;;7.93;6.30;;;;;;;;;;4218554;33;20457;-60
2022/03/10 12:18:30;;;;;;;7.15;6.18;;;;;;;;;;4231357;33;20096;-60
2022/03/10 12:20:57;;;;;;;7.90;6.00;;;;;;;;;;4231295;33;20101;-62
2022/03/10 12:23:26;;;;;;;8.93;5.85;;;;;;;;;;4231267;33;20204;-61
2022/03/10 12:26:00;;;;;;;6.25;5.43;;;;;;;;;;4218079;33;20457;-61
2022/03/10 12:28:40;;;;;;;7.18;5.62;;;;;;;;;;4232789;33;20120;-63
2022/03/10 12:31:07;;;;;;;12.30;6.07;;;;;;;;;;4233539;33;20221;-62
2022/03/10 12:33:34;;;;;;;7.07;5.50;;;;;;;;;;4233504;33;20113;-61
2022/03/10 12:36:01;;;;;;;8.80;5.32;;;;;;;;;;4233569;33;20116;-60
2022/03/10 12:38:38;;;;;;;7.68;5.30;;;;;;;;;;4233423;33;20084;-63
2022/03/10 12:41:05;;;;;;;7.85;5.93;;;;;;;;;;4233328;33;20197;-62
2022/03/10 12:43:31;;;;;;;6.90;5.30;;;;;;;;;;4233399;33;20473;-63
2022/03/10 12:45:58;;;;;;;6.60;5.43;;;;;;;;;;4233460;33;20097;-66
2022/03/10 12:48:29;;;;;;;6.80;5.53;;;;;;;;;;4233416;33;20108;-64
2022/03/10 12:50:55;;;;;;;6.97;5.45;;;;;;;;;;4220197;33;20128;-74
2022/03/10 12:53:21;;;;;;;9.02;5.93;;;;;;;;;;4233616;33;20551;-64
2022/03/10 12:55:55;;;;;;;7.72;5.57;;;;;;;;;;4220163;33;20140;-63
2022/03/10 12:58:31;;;;;;;6.75;5.45;;;;;;;;;;4233511;33;20132;-63
2022/03/10 13:01:08;;;;;;;6.37;5.25;;;;;;;;;;4233272;33;20606;-60
2022/03/10 13:03:36;;;;;;;5.93;5.22;;;;;;;;;;4233407;33;20201;-63
2022/03/10 13:06:02;;;;;;;7.00;5.57;;;;;;;;;;4232159;33;20187;-63
2022/03/10 13:08:29;;;;;;;6.20;5.50;;;;;;;;;;4208769;33;20208;-62
2022/03/10 13:11:01;;;;;;;7.57;5.40;;;;;;;;;;4233167;33;20528;-64
2022/03/10 13:13:29;;;;;;;8.88;6.43;;;;;;;;;;4233200;33;20203;-63
2022/03/10 13:15:59;;;;;;;5.97;5.15;;;;;;;;;;4220075;33;20116;-64
2022/03/10 13:18:25;;;;;;;8.68;5.18;;;;;;;;;;4233438;33;20104;-64
2022/03/10 13:20:51;;;;;;;6.45;4.95;;;;;;;;;;4232956;33;20151;-64
2022/03/10 13:23:24;;;;;;;7.97;5.70;;;;;;;;;;4233273;33;20105;-66
2022/03/10 13:25:50;;;;;;;8.23;5.85;;;;;;;;;;4208609;33;20105;-62
2022/03/10 13:28:16;;;;;;;8.25;5.50;;;;;;;;;;4231736;33;20108;-63
2022/03/10 13:30:43;;;;;;;6.37;5.22;;;;;;;;;;4232899;33;20105;-62
2022/03/10 13:33:10;;;;;;;7.68;5.25;;;;;;;;;;4233093;33;20114;-63
2022/03/10 13:35:44;;;;;;;8.75;5.70;;;;;;;;;;4231711;33;20121;-63
2022/03/10 13:38:18;;;;;;;7.12;5.50;;;;;;;;;;4196953;33;20166;-62
2022/03/10 13:40:46;;;;;;;8.63;5.70;;;;;;;;;;4232257;33;20141;-62
2022/03/10 13:43:27;;;;;;;7.70;5.60;;;;;;;;;;4232925;33;20105;-61
2022/03/10 13:45:53;;;;;;;8.50;5.75;;;;;;;;;;4232912;33;20112;-61
2022/03/10 13:48:23;;;;;;;9.27;5.78;;;;;;;;;;4232826;33;20470;-61
2022/03/10 13:50:50;;;;;;;7.78;5.65;;;;;;;;;;4219675;33;20148;-61
2022/03/10 13:53:16;;;;;;;7.40;5.87;;;;;;;;;;4233129;33;20097;-60
2022/03/10 13:55:51;;;;;;;9.10;5.95;;;;;;;;;;4219749;33;20101;-63
2022/03/10 13:58:17;;;;;;;9.23;6.80;;;;;;;;;;4219744;33;20105;-62
2022/03/10 14:00:46;;;;;;;7.57;5.95;;;;;;;;;;4232786;33;20109;-61
2022/03/10 14:03:17;;;;;;;8.15;5.70;;;;;;;;;;4232671;33;20516;-62
2022/03/10 14:05:44;;;;;;;7.68;5.90;;;;;;;;;;4232618;33;20108;-63
2022/03/10 14:08:17;;;;;;;11.18;6.10;;;;;;;;;;4231313;33;20105;-62
2022/03/10 14:10:43;;;;;;;8.13;5.80;;;;;;;;;;4220071;33;20089;-61
2022/03/10 14:13:10;;;;;;;8.18;6.28;;;;;;;;;;4228619;33;20117;-62
2022/03/10 14:15:38;;;;;;;9.05;6.00;;;;;;;;;;4216554;33;20093;-61
2022/03/10 14:18:11;;;;;;;8.38;6.30;;;;;;;;;;4216617;34;20124;-61
2022/03/10 14:20:49;;;;;;;8.40;6.30;;;;;;;;;;4181849;34;20102;-63
2022/03/10 14:23:18;;;;;;;8.15;5.85;;;;;;;;;;4218322;34;20117;-61
2022/03/10 14:25:51;;;;;;;8.98;6.32;;;;;;;;;;4218839;33;20568;-61
2022/03/10 14:28:25;;;;;;;9.07;6.75;;;;;;;;;;4232453;33;20127;-61
2022/03/10 14:30:52;;;;;;;8.30;6.10;;;;;;;;;;4230431;33;20124;-61
2022/03/10 14:33:19;;;;;;;9.98;6.37;;;;;;;;;;4232212;33;20105;-63
2022/03/10 14:35:45;;;;;;;9.98;6.62;;;;;;;;;;4232166;33;20108;-62
2022/03/10 14:38:13;;;;;;;8.05;5.85;;;;;;;;;;4232467;33;20099;-61
2022/03/10 14:40:40;;;;;;;8.77;6.28;;;;;;;;;;4226837;33;20188;-62
2022/03/10 14:43:07;;;;;;;7.28;6.37;;;;;;;;;;4218528;34;20140;-59
2022/03/10 14:45:33;;;;;;;8.93;6.25;;;;;;;;;;4217776;33;20502;-61
2022/03/10 14:47:59;;;;;;;8.18;6.25;;;;;;;;;;4218290;34;20133;-62
2022/03/10 14:50:26;;;;;;;11.48;7.10;;;;;;;;;;4217950;33;20489;-60
2022/03/10 14:52:52;;;;;;;9.75;6.40;;;;;;;;;;4204420;33;20108;-61
2022/03/10 14:55:18;;;;;;;10.63;7.30;;;;;;;;;;4217463;33;20450;-60
2022/03/10 14:57:44;;;;;;;7.93;6.37;;;;;;;;;;4217993;33;20123;-63
2022/03/10 15:00:15;;;;;;;9.32;6.90;;;;;;;;;;4217825;33;20561;-62
2022/03/10 15:02:41;;;;;;;10.82;7.30;;;;;;;;;;4218195;34;20812;-60
2022/03/10 15:05:08;;;;;;;8.63;6.87;;;;;;;;;;4204831;33;20097;-63
2022/03/10 15:07:34;;;;;;;9.05;6.87;;;;;;;;;;4217981;34;20489;-62
2022/03/10 15:10:00;;;;;;;8.75;6.68;;;;;;;;;;4217625;33;20098;-63